KFMY/FMY METAR and TAF weather

Enter ICAO airport designator
Station Type Date Time Source
KFMY METAR 2020/01/21 17:53 UTC NOAA

KFMY 211753Z 34016G22KT 10SM CLR 16/02 A3017 RMK AO2 SLP217 T01560017 10156 20072 58017


Station Type Date Time Source
KFMY Decoded METAR 2020/01/21 17:53 UTC NOAA

FORT MYERS PAGE FIELD, FL, United States (KFMY) 26-35N 081-52W 4M
Jan 21, 2020 - 12:53 PM EST / 2020.01.21 1753 UTC
Wind: from the NNW (340 degrees) at 18 MPH (16 KT) gusting to 25 MPH (22 KT):0
Visibility: 10 mile(s):0
Sky conditions: clear
Temperature: 60.1 F (15.6 C)
Dew Point: 35.1 F (1.7 C)
Relative Humidity: 38%
Pressure (altimeter): 30.17 in. Hg (1021 hPa)
Pressure tendency: 0.05 inches (1.7 hPa) lower than three hours ago
ob: KFMY 211753Z 34016G22KT 10SM CLR 16/02 A3017 RMK AO2 SLP217 T01560017 10156 20072 58017
cycle: 18

Station Type Date Time Source
KFMY TAF 2020/01/21 18:30 UTC NOAA

TAF KFMY 211728Z 2118/2218 35015G20KT P6SM FEW030
FM220900 01013KT P6SM SKC

Example: see airport list